Time;durP1;ratioP1;P1;durP2;ratioP2;P2;SDS_P1;SDS_P2;PMS_P1;PMS_P2;Temp;Humidity;BMP_temperature;BMP_pressure;BME280_temperature;BME280_humidity;BME280_pressure;Samples;Min_cycle;Max_cycle;Signal;HPM_P1;HPM_P2
2021/11/12 00:04:03;;;;;;;42.9;20.3;;;;;;;2.16;63.11133;95650.33;;;;
2021/11/12 00:13:38;;;;;;;64.5;20.3;;;;;;;2.15;63.31055;95652.26;;;;
2021/11/12 00:14:45;;;;;;;64.5;20.3;;;;;;;2.15;63.31055;95652.26;;;;
2021/11/12 00:15:48;;;;;;;64.5;20.3;;;;;;;2.15;63.31055;95652.26;;;;
2021/11/12 00:16:51;;;;;;;65.45;20.4;;;;;;;2.08;63.37402;95641.49;;;;
2021/11/12 00:17:52;;;;;;;65.45;20.4;;;;;;;2.08;63.37402;95641.49;;;;
2021/11/12 00:18:53;;;;;;;65.45;20.4;;;;;;;2.08;63.37402;95641.49;;;;
2021/11/12 00:19:54;;;;;;;65.45;20.4;;;;;;;2.08;63.37402;95641.49;;;;
2021/11/12 00:20:56;;;;;;;65.45;20.4;;;;;;;2.08;63.37402;95641.49;;;;
2021/11/12 00:21:59;;;;;;;65.45;20.4;;;;;;;2.08;63.37402;95641.49;;;;
2021/11/12 00:22:59;;;;;;;65.45;20.4;;;;;;;2.08;63.37402;95641.49;;;;
2021/11/12 00:24:00;;;;;;;65.45;20.4;;;;;;;2.08;63.37402;95641.49;;;;
2021/11/12 00:25:02;;;;;;;65.45;20.4;;;;;;;2.08;63.37402;95641.49;;;;
2021/11/12 00:26:03;;;;;;;65.45;20.4;;;;;;;2.08;63.37402;95641.49;;;;
2021/11/12 00:27:04;;;;;;;70.65001;23.35;;;;;;;2.04;63.62988;95628.69;;;;
2021/11/12 00:28:06;;;;;;;70.65001;23.35;;;;;;;2.04;63.62988;95628.69;;;;
2021/11/12 00:29:09;;;;;;;70.65001;23.35;;;;;;;2.04;63.62988;95628.69;;;;
2021/11/12 00:30:23;;;;;;;70.65001;23.35;;;;;;;2.04;63.62988;95628.69;;;;
2021/11/12 00:31:30;;;;;;;70.65001;23.35;;;;;;;2.04;63.62988;95628.69;;;;
2021/11/12 00:32:41;;;;;;;70.65001;23.35;;;;;;;2.04;63.62988;95628.69;;;;
2021/11/12 00:33:57;;;;;;;70.65001;23.35;;;;;;;2.04;63.62988;95628.69;;;;
2021/11/12 00:35:07;;;;;;;70.65001;23.35;;;;;;;2.04;63.62988;95628.69;;;;
2021/11/12 00:36:21;;;;;;;70.65001;23.35;;;;;;;2.04;63.62988;95628.69;;;;
2021/11/12 00:37:28;;;;;;;70.65001;23.35;;;;;;;2.04;63.62988;95628.69;;;;
2021/11/12 00:38:33;;;;;;;45.85;21.8;;;;;;;2.03;63.80762;95635.46;;;;
2021/11/12 00:39:39;;;;;;;45.85;21.8;;;;;;;2.03;63.80762;95635.46;;;;
2021/11/12 00:40:50;;;;;;;45.85;21.8;;;;;;;2.03;63.80762;95635.46;;;;
2021/11/12 00:41:59;;;;;;;45.85;21.8;;;;;;;2.03;63.80762;95635.46;;;;
2021/11/12 00:43:12;;;;;;;45.85;21.8;;;;;;;2.03;63.80762;95635.46;;;;
2021/11/12 00:44:17;;;;;;;45.85;21.8;;;;;;;2.03;63.80762;95635.46;;;;
2021/11/12 00:45:20;;;;;;;45.85;21.8;;;;;;;2.03;63.80762;95635.46;;;;
2021/11/12 00:46:25;;;;;;;45.85;21.8;;;;;;;2.03;63.80762;95635.46;;;;
2021/11/12 00:47:36;;;;;;;45.85;21.8;;;;;;;2.03;63.80762;95635.46;;;;
2021/11/12 00:48:39;;;;;;;69.95;21.85;;;;;;;2.02;64.03809;95630.69;;;;
2021/11/12 00:49:43;;;;;;;69.95;21.85;;;;;;;2.02;64.03809;95630.69;;;;
2021/11/12 00:51:20;;;;;;;69.95;21.85;;;;;;;2.02;64.03809;95630.69;;;;
2021/11/12 00:52:37;;;;;;;69.95;21.85;;;;;;;2.02;64.03809;95630.69;;;;
2021/11/12 00:53:50;;;;;;;69.95;21.85;;;;;;;2.02;64.03809;95630.69;;;;
2021/11/12 00:54:51;;;;;;;69.95;21.85;;;;;;;2.02;64.03809;95630.69;;;;
2021/11/12 00:55:52;;;;;;;69.95;21.85;;;;;;;2.02;64.03809;95630.69;;;;
2021/11/12 00:56:53;;;;;;;69.95;21.85;;;;;;;2.02;64.03809;95630.69;;;;
2021/11/12 00:57:54;;;;;;;69.95;21.85;;;;;;;2.02;64.03809;95630.69;;;;
2021/11/12 00:58:57;;;;;;;69.95;21.85;;;;;;;2.02;64.03809;95630.69;;;;
2021/11/12 01:00:00;;;;;;;95.7;24.2;;;;;;;2.02;64.2373;95628.94;;;;
2021/11/12 01:01:03;;;;;;;95.7;24.2;;;;;;;2.02;64.2373;95628.94;;;;
2021/11/12 01:02:04;;;;;;;95.7;24.2;;;;;;;2.02;64.2373;95628.94;;;;
2021/11/12 01:03:05;;;;;;;95.7;24.2;;;;;;;2.02;64.2373;95628.94;;;;
2021/11/12 01:04:06;;;;;;;95.7;24.2;;;;;;;2.02;64.2373;95628.94;;;;
2021/11/12 01:05:09;;;;;;;95.7;24.2;;;;;;;2.02;64.2373;95628.94;;;;
2021/11/12 01:06:10;;;;;;;95.7;24.2;;;;;;;2.02;64.2373;95628.94;;;;
2021/11/12 01:07:11;;;;;;;95.7;24.2;;;;;;;2.02;64.2373;95628.94;;;;
2021/11/12 01:08:11;;;;;;;95.7;24.2;;;;;;;2.02;64.2373;95628.94;;;;
2021/11/12 01:09:12;;;;;;;95.7;24.2;;;;;;;2.02;64.2373;95628.94;;;;
2021/11/12 01:10:16;;;;;;;57.7;22.35;;;;;;;2.03;64.40918;95633.17;;;;
2021/11/12 01:11:18;;;;;;;57.7;22.35;;;;;;;2.03;64.40918;95633.17;;;;
2021/11/12 01:12:21;;;;;;;57.7;22.35;;;;;;;2.03;64.40918;95633.17;;;;
2021/11/12 01:13:22;;;;;;;57.7;22.35;;;;;;;2.03;64.40918;95633.17;;;;
2021/11/12 01:14:23;;;;;;;57.7;22.35;;;;;;;2.03;64.40918;95633.17;;;;
2021/11/12 01:15:26;;;;;;;57.7;22.35;;;;;;;2.03;64.40918;95633.17;;;;
2021/11/12 01:16:27;;;;;;;57.7;22.35;;;;;;;2.03;64.40918;95633.17;;;;
2021/11/12 01:17:28;;;;;;;57.7;22.35;;;;;;;2.03;64.40918;95633.17;;;;
2021/11/12 01:18:28;;;;;;;57.7;22.35;;;;;;;2.03;64.40918;95633.17;;;;
2021/11/12 01:19:29;;;;;;;57.7;22.35;;;;;;;2.03;64.40918;95633.17;;;;
2021/11/12 01:20:29;;;;;;;66.60001;19.2;;;;;;;2.03;64.5127;95618.63;;;;
2021/11/12 01:21:30;;;;;;;66.60001;19.2;;;;;;;2.03;64.5127;95618.63;;;;
2021/11/12 01:22:32;;;;;;;66.60001;19.2;;;;;;;2.03;64.5127;95618.63;;;;
2021/11/12 01:23:33;;;;;;;66.60001;19.2;;;;;;;2.03;64.5127;95618.63;;;;
2021/11/12 01:24:35;;;;;;;66.60001;19.2;;;;;;;2.03;64.5127;95618.63;;;;
2021/11/12 01:25:37;;;;;;;66.60001;19.2;;;;;;;2.03;64.5127;95618.63;;;;
2021/11/12 01:26:37;;;;;;;66.60001;19.2;;;;;;;2.03;64.5127;95618.63;;;;
2021/11/12 01:27:39;;;;;;;66.60001;19.2;;;;;;;2.03;64.5127;95618.63;;;;
2021/11/12 01:28:41;;;;;;;66.60001;19.2;;;;;;;2.03;64.5127;95618.63;;;;
2021/11/12 01:29:42;;;;;;;66.60001;19.2;;;;;;;2.03;64.5127;95618.63;;;;
2021/11/12 01:30:42;;;;;;;66.60001;19.2;;;;;;;2.03;64.5127;95618.63;;;;
2021/11/12 01:31:43;;;;;;;28.2;17.85;;;;;;;1.99;64.66504;95619.48;;;;
2021/11/12 01:32:44;;;;;;;28.2;17.85;;;;;;;1.99;64.66504;95619.48;;;;
2021/11/12 01:33:47;;;;;;;28.2;17.85;;;;;;;1.99;64.66504;95619.48;;;;
2021/11/12 01:34:47;;;;;;;28.2;17.85;;;;;;;1.99;64.66504;95619.48;;;;
2021/11/12 01:35:55;;;;;;;28.2;17.85;;;;;;;1.99;64.66504;95619.48;;;;
2021/11/12 01:36:56;;;;;;;28.2;17.85;;;;;;;1.99;64.66504;95619.48;;;;
2021/11/12 01:37:57;;;;;;;28.2;17.85;;;;;;;1.99;64.66504;95619.48;;;;
2021/11/12 01:39:01;;;;;;;28.2;17.85;;;;;;;1.99;64.66504;95619.48;;;;
2021/11/12 01:40:07;;;;;;;28.2;17.85;;;;;;;1.99;64.66504;95619.48;;;;
2021/11/12 01:41:09;;;;;;;28.2;17.85;;;;;;;1.99;64.66504;95619.48;;;;
2021/11/12 01:42:10;;;;;;;32.1;19.2;;;;;;;1.97;64.87207;95613.5;;;;
2021/11/12 01:43:13;;;;;;;32.1;19.2;;;;;;;1.97;64.87207;95613.5;;;;
2021/11/12 01:44:16;;;;;;;32.1;19.2;;;;;;;1.97;64.87207;95613.5;;;;
2021/11/12 01:45:27;;;;;;;32.1;19.2;;;;;;;1.97;64.87207;95613.5;;;;
2021/11/12 01:46:33;;;;;;;32.1;19.2;;;;;;;1.97;64.87207;95613.5;;;;
2021/11/12 01:47:40;;;;;;;32.1;19.2;;;;;;;1.97;64.87207;95613.5;;;;
2021/11/12 01:48:53;;;;;;;32.1;19.2;;;;;;;1.97;64.87207;95613.5;;;;
2021/11/12 01:49:55;;;;;;;32.1;19.2;;;;;;;1.97;64.87207;95613.5;;;;
2021/11/12 01:51:01;;;;;;;32.1;19.2;;;;;;;1.97;64.87207;95613.5;;;;
2021/11/12 01:52:10;;;;;;;32.1;19.2;;;;;;;1.97;64.87207;95613.5;;;;
2021/11/12 01:53:13;;;;;;;45.1;19.95;;;;;;;1.91;65.02148;95601.29;;;;
2021/11/12 01:54:37;;;;;;;45.1;19.95;;;;;;;1.91;65.02148;95601.29;;;;
2021/11/12 01:55:41;;;;;;;45.1;19.95;;;;;;;1.91;65.02148;95601.29;;;;
2021/11/12 01:56:44;;;;;;;45.1;19.95;;;;;;;1.91;65.02148;95601.29;;;;
2021/11/12 01:57:53;;;;;;;45.1;19.95;;;;;;;1.91;65.02148;95601.29;;;;
2021/11/12 01:59:07;;;;;;;45.1;19.95;;;;;;;1.91;65.02148;95601.29;;;;
2021/11/12 02:00:07;;;;;;;45.1;19.95;;;;;;;1.91;65.02148;95601.29;;;;
2021/11/12 02:01:11;;;;;;;45.1;19.95;;;;;;;1.91;65.02148;95601.29;;;;
2021/11/12 02:02:12;;;;;;;45.1;19.95;;;;;;;1.91;65.02148;95601.29;;;;
2021/11/12 02:03:13;;;;;;;40.25;20.85;;;;;;;1.81;65.20508;95592.72;;;;
2021/11/12 02:04:14;;;;;;;40.25;20.85;;;;;;;1.81;65.20508;95592.72;;;;
2021/11/12 02:05:17;;;;;;;40.25;20.85;;;;;;;1.81;65.20508;95592.72;;;;
2021/11/12 02:06:18;;;;;;;40.25;20.85;;;;;;;1.81;65.20508;95592.72;;;;
2021/11/12 02:07:21;;;;;;;40.25;20.85;;;;;;;1.81;65.20508;95592.72;;;;
2021/11/12 02:08:22;;;;;;;40.25;20.85;;;;;;;1.81;65.20508;95592.72;;;;
2021/11/12 02:09:22;;;;;;;40.25;20.85;;;;;;;1.81;65.20508;95592.72;;;;
2021/11/12 02:10:25;;;;;;;40.25;20.85;;;;;;;1.81;65.20508;95592.72;;;;
2021/11/12 02:11:26;;;;;;;40.25;20.85;;;;;;;1.81;65.20508;95592.72;;;;
2021/11/12 02:12:29;;;;;;;40.25;20.85;;;;;;;1.81;65.20508;95592.72;;;;
2021/11/12 02:13:32;;;;;;;40.25;20.85;;;;;;;1.81;65.20508;95592.72;;;;
2021/11/12 02:14:34;;;;;;;28.9;18.9;;;;;;;1.76;65.36523;95581.85;;;;
2021/11/12 02:15:38;;;;;;;28.9;18.9;;;;;;;1.76;65.36523;95581.85;;;;
2021/11/12 02:16:42;;;;;;;28.9;18.9;;;;;;;1.76;65.36523;95581.85;;;;
2021/11/12 02:17:56;;;;;;;28.9;18.9;;;;;;;1.76;65.36523;95581.85;;;;
2021/11/12 02:18:58;;;;;;;28.9;18.9;;;;;;;1.76;65.36523;95581.85;;;;
2021/11/12 02:20:00;;;;;;;28.9;18.9;;;;;;;1.76;65.36523;95581.85;;;;
2021/11/12 02:21:05;;;;;;;28.9;18.9;;;;;;;1.76;65.36523;95581.85;;;;
2021/11/12 02:22:07;;;;;;;28.9;18.9;;;;;;;1.76;65.36523;95581.85;;;;
2021/11/12 02:23:08;;;;;;;28.9;18.9;;;;;;;1.76;65.36523;95581.85;;;;
2021/11/12 02:24:10;;;;;;;28.9;18.9;;;;;;;1.76;65.36523;95581.85;;;;
2021/11/12 02:25:13;;;;;;;42;19;;;;;;;1.75;65.5;95568.62;;;;
2021/11/12 02:26:19;;;;;;;42;19;;;;;;;1.75;65.5;95568.62;;;;
2021/11/12 02:27:25;;;;;;;42;19;;;;;;;1.75;65.5;95568.62;;;;
2021/11/12 02:28:27;;;;;;;42;19;;;;;;;1.75;65.5;95568.62;;;;
2021/11/12 02:29:29;;;;;;;42;19;;;;;;;1.75;65.5;95568.62;;;;
2021/11/12 02:30:32;;;;;;;42;19;;;;;;;1.75;65.5;95568.62;;;;
2021/11/12 02:31:32;;;;;;;42;19;;;;;;;1.75;65.5;95568.62;;;;
2021/11/12 02:32:34;;;;;;;42;19;;;;;;;1.75;65.5;95568.62;;;;
2021/11/12 02:33:35;;;;;;;42;19;;;;;;;1.75;65.5;95568.62;;;;
2021/11/12 02:34:35;;;;;;;42;19;;;;;;;1.75;65.5;95568.62;;;;
2021/11/12 02:35:36;;;;;;;38.1;18.55;;;;;;;1.76;65.54395;95557.89;;;;
2021/11/12 02:36:41;;;;;;;38.1;18.55;;;;;;;1.76;65.54395;95557.89;;;;
2021/11/12 02:37:42;;;;;;;38.1;18.55;;;;;;;1.76;65.54395;95557.89;;;;
2021/11/12 02:38:43;;;;;;;38.1;18.55;;;;;;;1.76;65.54395;95557.89;;;;
2021/11/12 02:39:46;;;;;;;38.1;18.55;;;;;;;1.76;65.54395;95557.89;;;;
2021/11/12 02:40:48;;;;;;;38.1;18.55;;;;;;;1.76;65.54395;95557.89;;;;
2021/11/12 02:41:49;;;;;;;38.1;18.55;;;;;;;1.76;65.54395;95557.89;;;;
2021/11/12 02:42:50;;;;;;;38.1;18.55;;;;;;;1.76;65.54395;95557.89;;;;
2021/11/12 02:43:51;;;;;;;38.1;18.55;;;;;;;1.76;65.54395;95557.89;;;;
2021/11/12 02:44:52;;;;;;;38.1;18.55;;;;;;;1.76;65.54395;95557.89;;;;
2021/11/12 02:45:54;;;;;;;53.89999;19.5;;;;;;;1.76;65.65039;95538.78;;;;
2021/11/12 02:46:55;;;;;;;53.89999;19.5;;;;;;;1.76;65.65039;95538.78;;;;
2021/11/12 02:47:55;;;;;;;53.89999;19.5;;;;;;;1.76;65.65039;95538.78;;;;
2021/11/12 02:48:56;;;;;;;53.89999;19.5;;;;;;;1.76;65.65039;95538.78;;;;
2021/11/12 02:49:59;;;;;;;53.89999;19.5;;;;;;;1.76;65.65039;95538.78;;;;
2021/11/12 02:50:59;;;;;;;53.89999;19.5;;;;;;;1.76;65.65039;95538.78;;;;
2021/11/12 02:52:00;;;;;;;53.89999;19.5;;;;;;;1.76;65.65039;95538.78;;;;
2021/11/12 02:53:03;;;;;;;53.89999;19.5;;;;;;;1.76;65.65039;95538.78;;;;
2021/11/12 02:54:05;;;;;;;53.89999;19.5;;;;;;;1.76;65.65039;95538.78;;;;
2021/11/12 02:55:06;;;;;;;53.89999;19.5;;;;;;;1.76;65.65039;95538.78;;;;
2021/11/12 02:56:11;;;;;;;53.89999;19.5;;;;;;;1.76;65.65039;95538.78;;;;
2021/11/12 02:57:12;;;;;;;33.55001;19.15;;;;;;;1.79;65.74902;95536.17;;;;
2021/11/12 02:58:13;;;;;;;33.55001;19.15;;;;;;;1.79;65.74902;95536.17;;;;
2021/11/12 02:59:14;;;;;;;33.55001;19.15;;;;;;;1.79;65.74902;95536.17;;;;
2021/11/12 03:00:16;;;;;;;33.55001;19.15;;;;;;;1.79;65.74902;95536.17;;;;
2021/11/12 03:01:21;;;;;;;33.55001;19.15;;;;;;;1.79;65.74902;95536.17;;;;
2021/11/12 03:02:23;;;;;;;33.55001;19.15;;;;;;;1.79;65.74902;95536.17;;;;
2021/11/12 03:03:23;;;;;;;33.55001;19.15;;;;;;;1.79;65.74902;95536.17;;;;
2021/11/12 03:04:24;;;;;;;33.55001;19.15;;;;;;;1.79;65.74902;95536.17;;;;
2021/11/12 03:05:25;;;;;;;33.55001;19.15;;;;;;;1.79;65.74902;95536.17;;;;
2021/11/12 03:06:26;;;;;;;33.55001;19.15;;;;;;;1.79;65.74902;95536.17;;;;
2021/11/12 03:07:27;;;;;;;58.25;19.9;;;;;;;1.86;65.84375;95531.87;;;;
2021/11/12 03:08:28;;;;;;;58.25;19.9;;;;;;;1.86;65.84375;95531.87;;;;
2021/11/12 03:09:29;;;;;;;58.25;19.9;;;;;;;1.86;65.84375;95531.87;;;;
2021/11/12 03:10:31;;;;;;;58.25;19.9;;;;;;;1.86;65.84375;95531.87;;;;
2021/11/12 03:11:32;;;;;;;58.25;19.9;;;;;;;1.86;65.84375;95531.87;;;;
2021/11/12 03:12:33;;;;;;;58.25;19.9;;;;;;;1.86;65.84375;95531.87;;;;
2021/11/12 03:13:34;;;;;;;58.25;19.9;;;;;;;1.86;65.84375;95531.87;;;;
2021/11/12 03:14:35;;;;;;;58.25;19.9;;;;;;;1.86;65.84375;95531.87;;;;
2021/11/12 03:15:36;;;;;;;58.25;19.9;;;;;;;1.86;65.84375;95531.87;;;;
2021/11/12 03:16:37;;;;;;;58.25;19.9;;;;;;;1.86;65.84375;95531.87;;;;
2021/11/12 03:17:38;;;;;;;58.25;19.9;;;;;;;1.86;65.84375;95531.87;;;;
2021/11/12 03:18:38;;;;;;;58.19999;20.4;;;;;;;1.92;65.98926;95536.91;;;;
2021/11/12 03:19:39;;;;;;;58.19999;20.4;;;;;;;1.92;65.98926;95536.91;;;;
2021/11/12 03:20:40;;;;;;;58.19999;20.4;;;;;;;1.92;65.98926;95536.91;;;;
2021/11/12 03:21:42;;;;;;;58.19999;20.4;;;;;;;1.92;65.98926;95536.91;;;;
2021/11/12 03:22:50;;;;;;;58.19999;20.4;;;;;;;1.92;65.98926;95536.91;;;;
2021/11/12 03:23:54;;;;;;;58.19999;20.4;;;;;;;1.92;65.98926;95536.91;;;;
2021/11/12 03:24:59;;;;;;;58.19999;20.4;;;;;;;1.92;65.98926;95536.91;;;;
2021/11/12 03:26:09;;;;;;;58.19999;20.4;;;;;;;1.92;65.98926;95536.91;;;;
2021/11/12 03:27:16;;;;;;;58.19999;20.4;;;;;;;1.92;65.98926;95536.91;;;;
2021/11/12 03:28:25;;;;;;;58.19999;20.4;;;;;;;1.92;65.98926;95536.91;;;;
2021/11/12 03:29:59;;;;;;;27.85;18.9;;;;;;;2.02;66.12012;95529.1;;;;
2021/11/12 03:31:26;;;;;;;27.85;18.9;;;;;;;2.02;66.12012;95529.1;;;;
2021/11/12 04:03:58;;;;;;;54.1;20;;;;;;;2.39;66.29297;95514.9;;;;
2021/11/12 04:05:15;;;;;;;54.1;20;;;;;;;2.39;66.29297;95514.9;;;;
2021/11/12 04:06:28;;;;;;;54.1;20;;;;;;;2.39;66.29297;95514.9;;;;
2021/11/12 04:07:38;;;;;;;54.1;20;;;;;;;2.39;66.29297;95514.9;;;;
2021/11/12 04:19:25;;;;;;;47.35;19.45;;;;;;;2.45;66.46094;95520.4;;;;
2021/11/12 04:21:08;;;;;;;47.35;19.45;;;;;;;2.45;66.46094;95520.4;;;;
2021/11/12 04:22:18;;;;;;;72.6;21.3;;;;;;;2.47;66.62207;95514.39;;;;
2021/11/12 04:49:51;;;;;;;90.45;21.9;;;;;;;2.62;67.08594;95501.51;;;;
2021/11/12 05:12:00;;;;;;;103.95;19.15;;;;;;;2.52;67.28125;95499.52;;;;
2021/11/12 05:13:16;;;;;;;103.95;19.15;;;;;;;2.52;67.28125;95499.52;;;;
2021/11/12 05:46:40;;;;;;;60.8;19.65;;;;;;;2.4;67.9248;95508.14;;;;
2021/11/12 05:58:06;;;;;;;36.55001;19.6;;;;;;;2.42;68.08594;95500.8;;;;
2021/11/12 05:59:06;;;;;;;36.55001;19.6;;;;;;;2.42;68.08594;95500.8;;;;
2021/11/12 06:00:07;;;;;;;36.55001;19.6;;;;;;;2.42;68.08594;95500.8;;;;
2021/11/12 06:01:13;;;;;;;36.55001;19.6;;;;;;;2.42;68.08594;95500.8;;;;
2021/11/12 06:02:14;;;;;;;36.55001;19.6;;;;;;;2.42;68.08594;95500.8;;;;
2021/11/12 06:03:16;;;;;;;36.55001;19.6;;;;;;;2.42;68.08594;95500.8;;;;
2021/11/12 06:04:16;;;;;;;36.55001;19.6;;;;;;;2.42;68.08594;95500.8;;;;
2021/11/12 06:05:18;;;;;;;36.55001;19.6;;;;;;;2.42;68.08594;95500.8;;;;
2021/11/12 06:06:19;;;;;;;36.55001;19.6;;;;;;;2.42;68.08594;95500.8;;;;
2021/11/12 06:07:20;;;;;;;36.55001;19.6;;;;;;;2.42;68.08594;95500.8;;;;
2021/11/12 06:08:21;;;;;;;36.55001;19.6;;;;;;;2.42;68.08594;95500.8;;;;
2021/11/12 06:09:23;;;;;;;40.8;16;;;;;;;2.45;68.25977;95506.59;;;;
2021/11/12 06:10:23;;;;;;;40.8;16;;;;;;;2.45;68.25977;95506.59;;;;
2021/11/12 06:11:27;;;;;;;40.8;16;;;;;;;2.45;68.25977;95506.59;;;;
2021/11/12 06:12:27;;;;;;;40.8;16;;;;;;;2.45;68.25977;95506.59;;;;
2021/11/12 06:13:29;;;;;;;40.8;16;;;;;;;2.45;68.25977;95506.59;;;;
2021/11/12 06:14:29;;;;;;;40.8;16;;;;;;;2.45;68.25977;95506.59;;;;
2021/11/12 06:15:30;;;;;;;40.8;16;;;;;;;2.45;68.25977;95506.59;;;;
2021/11/12 06:16:31;;;;;;;40.8;16;;;;;;;2.45;68.25977;95506.59;;;;
2021/11/12 06:17:32;;;;;;;40.8;16;;;;;;;2.45;68.25977;95506.59;;;;
2021/11/12 06:18:33;;;;;;;40.8;16;;;;;;;2.45;68.25977;95506.59;;;;
2021/11/12 06:19:34;;;;;;;31.85;15;;;;;;;2.31;68.38477;95510.05;;;;
2021/11/12 06:20:35;;;;;;;31.85;15;;;;;;;2.31;68.38477;95510.05;;;;
2021/11/12 06:21:35;;;;;;;31.85;15;;;;;;;2.31;68.38477;95510.05;;;;
2021/11/12 06:22:36;;;;;;;31.85;15;;;;;;;2.31;68.38477;95510.05;;;;
2021/11/12 06:23:37;;;;;;;31.85;15;;;;;;;2.31;68.38477;95510.05;;;;
2021/11/12 06:24:38;;;;;;;31.85;15;;;;;;;2.31;68.38477;95510.05;;;;
2021/11/12 06:25:38;;;;;;;31.85;15;;;;;;;2.31;68.38477;95510.05;;;;
2021/11/12 06:26:39;;;;;;;31.85;15;;;;;;;2.31;68.38477;95510.05;;;;
2021/11/12 06:27:40;;;;;;;31.85;15;;;;;;;2.31;68.38477;95510.05;;;;
2021/11/12 06:28:41;;;;;;;31.85;15;;;;;;;2.31;68.38477;95510.05;;;;
2021/11/12 06:29:42;;;;;;;31.85;15;;;;;;;2.31;68.38477;95510.05;;;;
2021/11/12 06:30:43;;;;;;;24.45;14.7;;;;;;;2.24;68.57227;95494.55;;;;
2021/11/12 06:31:43;;;;;;;24.45;14.7;;;;;;;2.24;68.57227;95494.55;;;;
2021/11/12 06:32:44;;;;;;;24.45;14.7;;;;;;;2.24;68.57227;95494.55;;;;
2021/11/12 06:33:45;;;;;;;24.45;14.7;;;;;;;2.24;68.57227;95494.55;;;;
2021/11/12 06:34:47;;;;;;;24.45;14.7;;;;;;;2.24;68.57227;95494.55;;;;
2021/11/12 06:35:48;;;;;;;24.45;14.7;;;;;;;2.24;68.57227;95494.55;;;;
2021/11/12 06:36:50;;;;;;;24.45;14.7;;;;;;;2.24;68.57227;95494.55;;;;
2021/11/12 06:37:51;;;;;;;24.45;14.7;;;;;;;2.24;68.57227;95494.55;;;;
2021/11/12 06:38:52;;;;;;;24.45;14.7;;;;;;;2.24;68.57227;95494.55;;;;
2021/11/12 06:39:54;;;;;;;24.45;14.7;;;;;;;2.24;68.57227;95494.55;;;;
2021/11/12 06:40:55;;;;;;;28;15.55;;;;;;;2.22;68.69727;95496.06;;;;
2021/11/12 06:41:58;;;;;;;28;15.55;;;;;;;2.22;68.69727;95496.06;;;;
2021/11/12 06:43:04;;;;;;;28;15.55;;;;;;;2.22;68.69727;95496.06;;;;
2021/11/12 06:44:22;;;;;;;28;15.55;;;;;;;2.22;68.69727;95496.06;;;;
2021/11/12 06:50:34;;;;;;;28;15.55;;;;;;;2.22;68.69727;95496.06;;;;
2021/11/12 06:51:36;;;;;;;24.65;15;;;;;;;2.25;68.84766;95505.44;;;;
2021/11/12 06:52:39;;;;;;;24.65;15;;;;;;;2.25;68.84766;95505.44;;;;
2021/11/12 06:53:41;;;;;;;24.65;15;;;;;;;2.25;68.84766;95505.44;;;;
2021/11/12 06:54:42;;;;;;;24.65;15;;;;;;;2.25;68.84766;95505.44;;;;
2021/11/12 06:55:42;;;;;;;24.65;15;;;;;;;2.25;68.84766;95505.44;;;;
2021/11/12 06:56:43;;;;;;;24.65;15;;;;;;;2.25;68.84766;95505.44;;;;
2021/11/12 06:57:44;;;;;;;24.65;15;;;;;;;2.25;68.84766;95505.44;;;;
2021/11/12 06:58:46;;;;;;;24.65;15;;;;;;;2.25;68.84766;95505.44;;;;
2021/11/12 06:59:47;;;;;;;24.65;15;;;;;;;2.25;68.84766;95505.44;;;;
2021/11/12 07:00:49;;;;;;;24.65;15;;;;;;;2.25;68.84766;95505.44;;;;
2021/11/12 07:01:52;;;;;;;24.65;15;;;;;;;2.25;68.84766;95505.44;;;;
2021/11/12 07:02:53;;;;;;;29.35;15.85;;;;;;;2.3;68.90723;95503.16;;;;
2021/11/12 07:03:54;;;;;;;29.35;15.85;;;;;;;2.3;68.90723;95503.16;;;;
2021/11/12 07:04:54;;;;;;;29.35;15.85;;;;;;;2.3;68.90723;95503.16;;;;
2021/11/12 07:05:55;;;;;;;29.35;15.85;;;;;;;2.3;68.90723;95503.16;;;;
2021/11/12 07:06:56;;;;;;;29.35;15.85;;;;;;;2.3;68.90723;95503.16;;;;
2021/11/12 07:07:56;;;;;;;29.35;15.85;;;;;;;2.3;68.90723;95503.16;;;;
2021/11/12 07:08:57;;;;;;;29.35;15.85;;;;;;;2.3;68.90723;95503.16;;;;
2021/11/12 07:09:57;;;;;;;29.35;15.85;;;;;;;2.3;68.90723;95503.16;;;;
2021/11/12 07:10:58;;;;;;;29.35;15.85;;;;;;;2.3;68.90723;95503.16;;;;
2021/11/12 07:11:58;;;;;;;29.35;15.85;;;;;;;2.3;68.90723;95503.16;;;;
2021/11/12 07:12:59;;;;;;;48.35;14.7;;;;;;;2.37;68.96191;95488.53;;;;
2021/11/12 07:14:00;;;;;;;48.35;14.7;;;;;;;2.37;68.96191;95488.53;;;;
2021/11/12 07:15:01;;;;;;;48.35;14.7;;;;;;;2.37;68.96191;95488.53;;;;
2021/11/12 07:16:03;;;;;;;48.35;14.7;;;;;;;2.37;68.96191;95488.53;;;;
2021/11/12 07:17:04;;;;;;;48.35;14.7;;;;;;;2.37;68.96191;95488.53;;;;
2021/11/12 07:18:05;;;;;;;48.35;14.7;;;;;;;2.37;68.96191;95488.53;;;;
2021/11/12 07:19:06;;;;;;;48.35;14.7;;;;;;;2.37;68.96191;95488.53;;;;
2021/11/12 07:20:07;;;;;;;48.35;14.7;;;;;;;2.37;68.96191;95488.53;;;;
2021/11/12 07:21:09;;;;;;;48.35;14.7;;;;;;;2.37;68.96191;95488.53;;;;
2021/11/12 07:22:09;;;;;;;48.35;14.7;;;;;;;2.37;68.96191;95488.53;;;;
2021/11/12 07:23:11;;;;;;;48.35;14.7;;;;;;;2.37;68.96191;95488.53;;;;
2021/11/12 07:24:11;;;;;;;26.4;14.8;;;;;;;2.4;69.12402;95506.39;;;;
2021/11/12 07:25:12;;;;;;;26.4;14.8;;;;;;;2.4;69.12402;95506.39;;;;
2021/11/12 07:26:14;;;;;;;26.4;14.8;;;;;;;2.4;69.12402;95506.39;;;;
2021/11/12 07:27:15;;;;;;;26.4;14.8;;;;;;;2.4;69.12402;95506.39;;;;
2021/11/12 07:28:15;;;;;;;26.4;14.8;;;;;;;2.4;69.12402;95506.39;;;;
2021/11/12 07:29:19;;;;;;;26.4;14.8;;;;;;;2.4;69.12402;95506.39;;;;
2021/11/12 07:30:20;;;;;;;26.4;14.8;;;;;;;2.4;69.12402;95506.39;;;;
2021/11/12 07:31:21;;;;;;;26.4;14.8;;;;;;;2.4;69.12402;95506.39;;;;
2021/11/12 07:32:21;;;;;;;26.4;14.8;;;;;;;2.4;69.12402;95506.39;;;;
2021/11/12 07:33:23;;;;;;;26.4;14.8;;;;;;;2.4;69.12402;95506.39;;;;
2021/11/12 07:34:25;;;;;;;45.45;14.3;;;;;;;2.47;69.31445;95508.57;;;;
2021/11/12 07:35:30;;;;;;;45.45;14.3;;;;;;;2.47;69.31445;95508.57;;;;
2021/11/12 07:36:35;;;;;;;45.45;14.3;;;;;;;2.47;69.31445;95508.57;;;;
2021/11/12 07:37:36;;;;;;;45.45;14.3;;;;;;;2.47;69.31445;95508.57;;;;
2021/11/12 07:38:46;;;;;;;45.45;14.3;;;;;;;2.47;69.31445;95508.57;;;;
2021/11/12 07:39:50;;;;;;;45.45;14.3;;;;;;;2.47;69.31445;95508.57;;;;
2021/11/12 07:41:29;;;;;;;45.45;14.3;;;;;;;2.47;69.31445;95508.57;;;;
2021/11/12 07:42:36;;;;;;;45.45;14.3;;;;;;;2.47;69.31445;95508.57;;;;
2021/11/12 07:44:53;;;;;;;45.45;14.3;;;;;;;2.47;69.31445;95508.57;;;;
2021/11/12 07:46:07;;;;;;;19.95;14.75;;;;;;;2.52;69.45898;95509.77;;;;
2021/11/12 07:47:12;;;;;;;19.95;14.75;;;;;;;2.52;69.45898;95509.77;;;;
2021/11/12 07:48:14;;;;;;;19.95;14.75;;;;;;;2.52;69.45898;95509.77;;;;
2021/11/12 07:49:15;;;;;;;19.95;14.75;;;;;;;2.52;69.45898;95509.77;;;;
2021/11/12 07:50:16;;;;;;;19.95;14.75;;;;;;;2.52;69.45898;95509.77;;;;
2021/11/12 07:51:17;;;;;;;19.95;14.75;;;;;;;2.52;69.45898;95509.77;;;;
2021/11/12 07:52:17;;;;;;;19.95;14.75;;;;;;;2.52;69.45898;95509.77;;;;
2021/11/12 07:53:20;;;;;;;19.95;14.75;;;;;;;2.52;69.45898;95509.77;;;;
2021/11/12 07:54:21;;;;;;;19.95;14.75;;;;;;;2.52;69.45898;95509.77;;;;
2021/11/12 07:55:22;;;;;;;28.05;14.25;;;;;;;2.6;69.59766;95502.2;;;;
2021/11/12 07:56:22;;;;;;;28.05;14.25;;;;;;;2.6;69.59766;95502.2;;;;
2021/11/12 07:57:24;;;;;;;28.05;14.25;;;;;;;2.6;69.59766;95502.2;;;;
2021/11/12 07:58:26;;;;;;;28.05;14.25;;;;;;;2.6;69.59766;95502.2;;;;
2021/11/12 07:59:26;;;;;;;28.05;14.25;;;;;;;2.6;69.59766;95502.2;;;;
2021/11/12 08:00:27;;;;;;;28.05;14.25;;;;;;;2.6;69.59766;95502.2;;;;
2021/11/12 08:01:27;;;;;;;28.05;14.25;;;;;;;2.6;69.59766;95502.2;;;;
2021/11/12 08:02:28;;;;;;;28.05;14.25;;;;;;;2.6;69.59766;95502.2;;;;
2021/11/12 08:03:29;;;;;;;28.05;14.25;;;;;;;2.6;69.59766;95502.2;;;;
2021/11/12 08:04:30;;;;;;;28.05;14.25;;;;;;;2.6;69.59766;95502.2;;;;
2021/11/12 08:05:36;;;;;;;28.05;14.25;;;;;;;2.6;69.59766;95502.2;;;;
2021/11/12 08:06:38;;;;;;;25.35;13.9;;;;;;;2.93;69.65234;95491.53;;;;
2021/11/12 08:07:39;;;;;;;25.35;13.9;;;;;;;2.93;69.65234;95491.53;;;;
2021/11/12 08:08:42;;;;;;;25.35;13.9;;;;;;;2.93;69.65234;95491.53;;;;
2021/11/12 08:09:50;;;;;;;25.35;13.9;;;;;;;2.93;69.65234;95491.53;;;;
2021/11/12 08:10:54;;;;;;;25.35;13.9;;;;;;;2.93;69.65234;95491.53;;;;
2021/11/12 08:11:57;;;;;;;25.35;13.9;;;;;;;2.93;69.65234;95491.53;;;;
2021/11/12 08:13:00;;;;;;;25.35;13.9;;;;;;;2.93;69.65234;95491.53;;;;
2021/11/12 08:14:07;;;;;;;25.35;13.9;;;;;;;2.93;69.65234;95491.53;;;;
2021/11/12 08:15:16;;;;;;;25.35;13.9;;;;;;;2.93;69.65234;95491.53;;;;
2021/11/12 08:16:28;;;;;;;25.35;13.9;;;;;;;2.93;69.65234;95491.53;;;;
2021/11/12 08:17:35;;;;;;;22.8;12.65;;;;;;;3.29;69.49902;95495.59;;;;
2021/11/12 08:18:47;;;;;;;22.8;12.65;;;;;;;3.29;69.49902;95495.59;;;;
2021/11/12 08:19:51;;;;;;;22.8;12.65;;;;;;;3.29;69.49902;95495.59;;;;
2021/11/12 08:20:56;;;;;;;22.8;12.65;;;;;;;3.29;69.49902;95495.59;;;;
2021/11/12 08:22:02;;;;;;;22.8;12.65;;;;;;;3.29;69.49902;95495.59;;;;
2021/11/12 08:23:11;;;;;;;22.8;12.65;;;;;;;3.29;69.49902;95495.59;;;;
2021/11/12 08:24:15;;;;;;;22.8;12.65;;;;;;;3.29;69.49902;95495.59;;;;
2021/11/12 08:25:21;;;;;;;22.8;12.65;;;;;;;3.29;69.49902;95495.59;;;;
2021/11/12 08:26:31;;;;;;;22.8;12.65;;;;;;;3.29;69.49902;95495.59;;;;
2021/11/12 08:27:49;;;;;;;24.25;13;;;;;;;3.56;69.40723;95489.45;;;;
2021/11/12 08:30:06;;;;;;;24.25;13;;;;;;;3.56;69.40723;95489.45;;;;
2021/11/12 08:31:21;;;;;;;24.25;13;;;;;;;3.56;69.40723;95489.45;;;;
2021/11/12 08:32:31;;;;;;;24.25;13;;;;;;;3.56;69.40723;95489.45;;;;